Time;durP1;ratioP1;P1;durP2;ratioP2;P2;SDS_P1;SDS_P2;PMS_P1;PMS_P2;Temp;Humidity;BMP_temperature;BMP_pressure;BME280_temperature;BME280_humidity;BME280_pressure;Samples;Min_cycle;Max_cycle;Signal;HPM_P1;HPM_P2
2023/04/29 00:02:10;;;;;;;36.15;16.90;;;;;;;;;;5112188;28;20036;-78
2023/04/29 00:04:36;;;;;;;;;;;;;;;;;;5120653;27;20099;-77
2023/04/29 00:07:02;;;;;;;33.53;14.52;;;;;;;;;;5133417;27;19923;-78
2023/04/29 00:09:28;;;;;;;38.05;16.80;;;;;;;;;;5114607;27;20311;-78
2023/04/29 00:11:54;;;;;;;34.75;16.50;;;;;;;;;;5133541;27;20051;-78
2023/04/29 00:14:20;;;;;;;35.85;15.82;;;;;;;;;;5115762;27;20051;-78
2023/04/29 00:16:46;;;;;;;42.25;18.52;;;;;;;;;;5132999;27;20051;-79
2023/04/29 00:19:12;;;;;;;33.00;16.38;;;;;;;;;;5131756;27;20058;-78
2023/04/29 00:21:38;;;;;;;34.67;16.75;;;;;;;;;;5125315;27;20047;-78
2023/04/29 00:24:04;;;;;;;30.10;15.75;;;;;;;;;;5132762;27;20047;-78
2023/04/29 00:26:31;;;;;;;32.30;15.70;;;;;;;;;;5131641;27;20054;-78
2023/04/29 00:28:57;;;;;;;;;;;;;;;;;;5116401;27;20141;-78
2023/04/29 00:31:23;;;;;;;27.88;13.95;;;;;;;;;;5132762;27;20030;-78
2023/04/29 00:33:49;;;;;;;;;;;;;;;;;;5083644;28;20077;-78
2023/04/29 00:36:15;;;;;;;33.08;15.05;;;;;;;;;;5094865;28;19924;-78
2023/04/29 00:38:42;;;;;;;30.80;13.82;;;;;;;;;;5122151;27;20043;-79
2023/04/29 00:41:08;;;;;;;32.45;14.35;;;;;;;;;;5111757;27;20414;-80
2023/04/29 00:43:34;;;;;;;;;;;;;;;;;;5095486;28;20051;-79
2023/04/29 00:46:00;;;;;;;31.65;15.18;;;;;;;;;;5112483;28;20031;-78
2023/04/29 00:48:26;;;;;;;31.33;16.10;;;;;;;;;;5093703;28;20551;-76
2023/04/29 00:50:52;;;;;;;;;;;;;;;;;;5112400;28;20130;-78
2023/04/29 00:53:18;;;;;;;34.10;15.48;;;;;;;;;;5094647;28;20002;-78
2023/04/29 00:55:44;;;;;;;;;;;;;;;;;;5111718;28;20047;-77
2023/04/29 00:58:10;;;;;;;34.47;15.85;;;;;;;;;;5111991;28;19963;-78
2023/04/29 01:00:37;;;;;;;32.95;15.45;;;;;;;;;;5089874;28;20052;-78
2023/04/29 01:03:04;;;;;;;36.05;16.08;;;;;;;;;;5111587;28;20047;-78
2023/04/29 01:05:31;;;;;;;38.17;17.13;;;;;;;;;;5110397;28;20046;-79
2023/04/29 01:08:13;;;;;;;38.42;17.48;;;;;;;;;;5094888;28;20042;-77
2023/04/29 01:10:54;;;;;;;39.45;17.27;;;;;;;;;;5110801;28;20048;-78
2023/04/29 01:13:32;;;;;;;38.78;17.63;;;;;;;;;;5111129;28;20083;-78
2023/04/29 01:16:03;;;;;;;40.03;18.52;;;;;;;;;;5110396;28;20123;-78
2023/04/29 01:18:32;;;;;;;37.22;17.80;;;;;;;;;;5102636;28;20058;-79
2023/04/29 01:20:59;;;;;;;47.97;18.20;;;;;;;;;;5090865;28;20097;-78
2023/04/29 01:23:29;;;;;;;45.85;17.85;;;;;;;;;;5105435;28;20044;-78
2023/04/29 01:25:55;;;;;;;41.33;17.02;;;;;;;;;;5110501;28;20409;-78
2023/04/29 01:28:27;;;;;;;40.30;17.40;;;;;;;;;;5093875;28;20052;-81
2023/04/29 01:31:00;;;;;;;45.70;18.80;;;;;;;;;;5111254;28;20404;-78
2023/04/29 01:33:36;;;;;;;37.15;17.70;;;;;;;;;;5109964;28;20634;-78
2023/04/29 01:36:02;;;;;;;41.33;17.75;;;;;;;;;;5111280;28;20047;-78
2023/04/29 01:38:28;;;;;;;45.75;18.48;;;;;;;;;;5089254;28;20505;-78
2023/04/29 01:41:22;;;;;;;42.75;18.10;;;;;;;;;;5105410;27;20043;-78
2023/04/29 01:43:53;;;;;;;41.97;17.45;;;;;;;;;;5076500;27;20066;-79
2023/04/29 01:46:19;;;;;;;34.97;16.98;;;;;;;;;;5122221;27;20039;-78
2023/04/29 01:48:46;;;;;;;38.00;16.42;;;;;;;;;;5133838;27;20495;-78
2023/04/29 01:51:12;;;;;;;43.80;18.25;;;;;;;;;;5134891;27;20091;-79
2023/04/29 01:53:39;;;;;;;37.08;15.45;;;;;;;;;;5133162;27;20054;-78
2023/04/29 01:56:06;;;;;;;38.28;16.65;;;;;;;;;;5113505;27;20055;-78
2023/04/29 01:58:32;;;;;;;40.63;17.45;;;;;;;;;;5113537;27;20043;-78
2023/04/29 02:00:58;;;;;;;44.75;17.95;;;;;;;;;;5114234;27;20434;-78
2023/04/29 02:03:24;;;;;;;37.95;16.77;;;;;;;;;;5112875;27;20430;-78
2023/04/29 02:05:50;;;;;;;;;;;;;;;;;;5117407;27;20070;-78
2023/04/29 02:08:17;;;;;;;31.45;15.43;;;;;;;;;;5131835;27;19923;-78
2023/04/29 02:10:51;;;;;;;37.42;15.57;;;;;;;;;;5116110;27;20047;-78
2023/04/29 02:13:17;;;;;;;42.08;17.45;;;;;;;;;;5134419;27;20039;-78
2023/04/29 02:15:43;;;;;;;35.33;15.73;;;;;;;;;;5134120;27;20129;-78
2023/04/29 02:18:09;;;;;;;;;;;;;;;;;;5100349;27;20075;-78
2023/04/29 02:20:35;;;;;;;37.80;15.90;;;;;;;;;;5133109;27;20391;-78
2023/04/29 02:23:02;;;;;;;35.33;15.75;;;;;;;;;;5117828;27;20073;-78
2023/04/29 02:25:27;;;;;;;;;;;;;;;;;;5112957;27;20043;-78
2023/04/29 02:27:54;;;;;;;37.03;15.73;;;;;;;;;;5113751;27;20348;-78
2023/04/29 02:30:20;;;;;;;37.33;15.27;;;;;;;;;;5113334;27;20395;-78
2023/04/29 02:32:46;;;;;;;36.45;15.27;;;;;;;;;;5112672;27;20134;-78
2023/04/29 02:35:12;;;;;;;;;;;;;;;;;;5113219;27;20474;-78
2023/04/29 02:37:38;;;;;;;32.90;15.23;;;;;;;;;;5113685;27;19923;-78
2023/04/29 02:40:04;;;;;;;;;;;;;;;;;;5129203;27;20464;-78
2023/04/29 02:42:31;;;;;;;33.05;14.88;;;;;;;;;;5133701;27;19930;-78
2023/04/29 02:44:57;;;;;;;33.35;13.95;;;;;;;;;;5117202;27;20057;-78
2023/04/29 02:47:23;;;;;;;34.25;13.77;;;;;;;;;;5116555;27;20047;-80
2023/04/29 02:49:49;;;;;;;;;;;;;;;;;;5133197;27;20049;-78
2023/04/29 02:52:16;;;;;;;33.13;14.75;;;;;;;;;;5124415;28;19919;-79
2023/04/29 02:54:42;;;;;;;30.08;13.45;;;;;;;;;;5112067;28;20055;-78
2023/04/29 02:57:08;;;;;;;;;;;;;;;;;;5097014;28;20086;-78
2023/04/29 02:59:34;;;;;;;32.42;13.40;;;;;;;;;;5114112;27;19963;-78
2023/04/29 03:02:01;;;;;;;32.72;13.63;;;;;;;;;;5116659;27;20046;-78
2023/04/29 03:04:27;;;;;;;33.85;15.13;;;;;;;;;;5113262;28;20464;-79
2023/04/29 03:06:53;;;;;;;;;;;;;;;;;;5096975;28;20062;-78
2023/04/29 03:09:20;;;;;;;30.15;13.90;;;;;;;;;;5112537;28;19923;-78
2023/04/29 03:11:46;;;;;;;32.72;14.45;;;;;;;;;;5112876;28;20043;-78
2023/04/29 03:14:12;;;;;;;34.90;14.40;;;;;;;;;;5096446;28;20046;-78
2023/04/29 03:16:38;;;;;;;33.55;15.27;;;;;;;;;;5110100;27;20042;-78
2023/04/29 03:19:05;;;;;;;30.80;14.88;;;;;;;;;;5132671;27;20043;-79
2023/04/29 03:21:31;;;;;;;36.08;15.05;;;;;;;;;;5133347;27;20050;-78
2023/04/29 03:23:57;;;;;;;34.03;13.95;;;;;;;;;;5128198;27;20042;-78
2023/04/29 03:26:24;;;;;;;37.20;14.13;;;;;;;;;;5112609;28;20370;-78
2023/04/29 03:28:50;;;;;;;32.60;13.55;;;;;;;;;;5112537;28;20133;-77
2023/04/29 03:31:17;;;;;;;30.60;12.98;;;;;;;;;;5096369;28;20055;-78
2023/04/29 03:33:43;;;;;;;31.25;14.07;;;;;;;;;;5094929;28;20461;-78
2023/04/29 03:36:09;;;;;;;27.60;14.23;;;;;;;;;;5113046;28;20058;-77
2023/04/29 03:38:35;;;;;;;33.03;14.63;;;;;;;;;;5125997;27;20043;-78
2023/04/29 03:41:02;;;;;;;32.78;13.10;;;;;;;;;;5115076;27;20492;-79
2023/04/29 03:43:31;;;;;;;32.45;13.77;;;;;;;;;;5133262;27;20043;-82
2023/04/29 03:45:57;;;;;;;29.75;13.45;;;;;;;;;;5121033;28;20057;-78
2023/04/29 03:48:24;;;;;;;30.63;13.75;;;;;;;;;;5095530;28;20054;-79
2023/04/29 03:50:50;;;;;;;29.17;12.30;;;;;;;;;;5117976;27;20900;-78
2023/04/29 03:53:16;;;;;;;;;;;;;;;;;;5115976;28;20051;-78
2023/04/29 03:55:42;;;;;;;31.77;12.23;;;;;;;;;;5111569;28;19995;-78
2023/04/29 03:58:08;;;;;;;;;;;;;;;;;;5122839;27;20046;-77
2023/04/29 04:00:34;;;;;;;28.15;12.45;;;;;;;;;;5132804;27;19923;-78
2023/04/29 04:03:00;;;;;;;27.70;12.10;;;;;;;;;;5135224;27;20479;-78
2023/04/29 04:05:26;;;;;;;24.00;12.05;;;;;;;;;;5115432;27;20059;-78
2023/04/29 04:07:52;;;;;;;32.63;11.48;;;;;;;;;;5117298;27;20043;-78
2023/04/29 04:10:19;;;;;;;29.77;11.70;;;;;;;;;;5136192;27;20042;-78
2023/04/29 04:12:46;;;;;;;35.53;12.20;;;;;;;;;;5136348;27;20517;-78
2023/04/29 04:15:12;;;;;;;25.42;11.40;;;;;;;;;;5136784;27;20475;-78
2023/04/29 04:17:38;;;;;;;;;;;;;;;;;;5131971;27;20086;-78
2023/04/29 04:20:04;;;;;;;29.35;11.40;;;;;;;;;;5114983;27;19968;-78
2023/04/29 04:22:31;;;;;;;26.60;10.85;;;;;;;;;;5116194;27;20052;-78
2023/04/29 04:24:57;;;;;;;30.17;11.50;;;;;;;;;;5114501;27;20492;-78
2023/04/29 04:27:23;;;;;;;23.20;10.93;;;;;;;;;;5116152;27;20078;-78
2023/04/29 04:29:49;;;;;;;;;;;;;;;;;;5115952;27;20058;-77
2023/04/29 04:32:15;;;;;;;21.75;10.75;;;;;;;;;;5104272;27;19919;-78
2023/04/29 04:34:41;;;;;;;;;;;;;;;;;;5135667;27;20081;-77
2023/04/29 04:37:07;;;;;;;24.80;10.93;;;;;;;;;;5136649;27;20366;-77
2023/04/29 04:39:33;;;;;;;;;;;;;;;;;;5133359;27;20488;-77
2023/04/29 04:42:02;;;;;;;27.35;9.90;;;;;;;;;;5132108;27;19927;-78
2023/04/29 04:44:29;;;;;;;23.27;9.63;;;;;;;;;;5098708;27;20071;-78
2023/04/29 04:46:55;;;;;;;22.40;10.30;;;;;;;;;;5125715;27;20319;-78
2023/04/29 04:49:23;;;;;;;30.23;10.57;;;;;;;;;;5131340;27;20124;-78
2023/04/29 04:51:50;;;;;;;23.67;10.77;;;;;;;;;;5111198;27;20039;-79
2023/04/29 04:54:16;;;;;;;24.33;9.77;;;;;;;;;;5114307;27;20047;-79
2023/04/29 04:56:42;;;;;;;;;;;;;;;;;;5098687;27;20122;-77
2023/04/29 04:59:08;;;;;;;24.45;11.18;;;;;;;;;;5133656;27;20390;-78
2023/04/29 05:01:34;;;;;;;24.85;10.38;;;;;;;;;;5114758;27;20134;-77
2023/04/29 05:04:01;;;;;;;;;;;;;;;;;;5114175;27;20042;-77
2023/04/29 05:06:28;;;;;;;27.73;10.13;;;;;;;;;;5115279;27;19923;-77
2023/04/29 05:08:54;;;;;;;;;;;;;;;;;;5122105;27;20049;-78
2023/04/29 05:11:20;;;;;;;24.88;10.43;;;;;;;;;;5114792;27;19920;-77
2023/04/29 05:13:50;;;;;;;21.23;9.52;;;;;;;;;;5097461;27;20129;-77
2023/04/29 05:16:16;;;;;;;24.50;10.85;;;;;;;;;;5115448;27;20043;-77
2023/04/29 05:18:44;;;;;;;23.13;10.15;;;;;;;;;;5113289;27;20224;-77
2023/04/29 05:21:11;;;;;;;22.08;9.63;;;;;;;;;;5115000;27;20043;-78
2023/04/29 05:23:37;;;;;;;27.42;10.68;;;;;;;;;;5114885;27;20131;-78
2023/04/29 05:26:03;;;;;;;;;;;;;;;;;;5132893;27;20050;-77
2023/04/29 05:28:29;;;;;;;26.10;9.50;;;;;;;;;;5135224;27;19971;-78
2023/04/29 05:30:55;;;;;;;21.52;8.65;;;;;;;;;;5133387;27;20069;-77
2023/04/29 05:33:21;;;;;;;;;;;;;;;;;;5109879;27;20055;-79
2023/04/29 05:35:47;;;;;;;26.48;9.05;;;;;;;;;;5096730;27;19931;-77
2023/04/29 05:38:13;;;;;;;18.63;9.23;;;;;;;;;;5132386;27;20066;-77
2023/04/29 05:40:39;;;;;;;19.83;8.50;;;;;;;;;;5116880;27;20055;-77
2023/04/29 05:43:06;;;;;;;;;;;;;;;;;;5135057;27;20050;-77
2023/04/29 05:45:32;;;;;;;21.00;8.18;;;;;;;;;;5122001;27;19930;-77
2023/04/29 05:47:58;;;;;;;;;;;;;;;;;;5113913;27;20134;-77
2023/04/29 05:50:24;;;;;;;22.45;8.30;;;;;;;;;;5125750;27;20414;-77
2023/04/29 05:52:50;;;;;;;20.48;9.25;;;;;;;;;;5132580;27;20058;-77
2023/04/29 05:55:16;;;;;;;;;;;;;;;;;;5105200;27;20082;-77
2023/04/29 05:57:42;;;;;;;20.98;8.02;;;;;;;;;;5114275;27;19969;-77
2023/04/29 06:00:09;;;;;;;18.42;8.00;;;;;;;;;;5113210;27;20097;-77
2023/04/29 06:02:35;;;;;;;19.10;7.90;;;;;;;;;;5113814;27;20105;-77
2023/04/29 06:05:01;;;;;;;17.67;7.05;;;;;;;;;;5129845;27;20070;-77
2023/04/29 06:07:27;;;;;;;19.77;7.20;;;;;;;;;;5117804;27;20046;-77
2023/04/29 06:09:53;;;;;;;18.25;7.15;;;;;;;;;;5125265;27;20110;-77
2023/04/29 06:12:20;;;;;;;;;;;;;;;;;;5114311;27;20481;-77
2023/04/29 06:14:46;;;;;;;17.85;7.28;;;;;;;;;;5114172;27;19969;-81
2023/04/29 06:17:12;;;;;;;18.75;7.72;;;;;;;;;;5113332;27;20053;-78
2023/04/29 06:19:38;;;;;;;16.65;6.90;;;;;;;;;;5111283;27;20042;-78
2023/04/29 06:22:04;;;;;;;17.80;7.35;;;;;;;;;;5133856;27;20047;-77
2023/04/29 06:24:30;;;;;;;17.85;7.65;;;;;;;;;;5130190;27;20107;-77
2023/04/29 06:26:56;;;;;;;15.70;6.78;;;;;;;;;;5096363;27;20563;-77
2023/04/29 06:29:22;;;;;;;;;;;;;;;;;;5114165;27;20087;-78
2023/04/29 06:31:48;;;;;;;15.15;7.20;;;;;;;;;;5112988;27;19981;-81
2023/04/29 06:34:14;;;;;;;;;;;;;;;;;;5113446;27;20073;-77
2023/04/29 06:36:40;;;;;;;19.02;7.40;;;;;;;;;;5101883;27;19923;-77
2023/04/29 06:39:06;;;;;;;;;;;;;;;;;;5116186;27;20054;-77
2023/04/29 06:41:33;;;;;;;18.33;8.00;;;;;;;;;;5109493;28;20043;-77
2023/04/29 06:43:59;;;;;;;18.05;7.55;;;;;;;;;;5109472;28;20051;-78
2023/04/29 06:46:26;;;;;;;18.85;7.60;;;;;;;;;;5089357;28;20040;-77
2023/04/29 06:48:52;;;;;;;16.15;7.53;;;;;;;;;;5071613;28;20052;-73
2023/04/29 06:51:18;;;;;;;16.45;8.23;;;;;;;;;;5090836;28;20051;-70
2023/04/29 06:53:45;;;;;;;22.17;8.90;;;;;;;;;;5095654;28;20071;-71
2023/04/29 06:56:11;;;;;;;21.88;8.95;;;;;;;;;;5099806;28;20040;-73
2023/04/29 06:58:38;;;;;;;;;;;;;;;;;;5098939;28;20174;-71
2023/04/29 07:01:06;;;;;;;17.33;8.20;;;;;;;;;;5100769;28;19927;-70
2023/04/29 07:03:32;;;;;;;20.50;8.82;;;;;;;;;;5110021;28;20283;-72
2023/04/29 07:05:58;;;;;;;;;;;;;;;;;;5110882;28;20043;-71
2023/04/29 07:08:24;;;;;;;21.02;8.32;;;;;;;;;;5110233;28;19927;-71
2023/04/29 07:10:50;;;;;;;;;;;;;;;;;;5107682;28;20054;-73
2023/04/29 07:13:16;;;;;;;19.83;8.30;;;;;;;;;;5109339;28;19924;-72
2023/04/29 07:15:42;;;;;;;18.33;7.88;;;;;;;;;;5100964;28;20051;-72
2023/04/29 07:18:08;;;;;;;16.83;7.65;;;;;;;;;;5089556;28;20048;-72
2023/04/29 07:20:36;;;;;;;14.20;7.10;;;;;;;;;;5097820;28;20075;-72
2023/04/29 07:23:02;;;;;;;17.48;8.45;;;;;;;;;;5109395;28;20055;-72
2023/04/29 07:25:28;;;;;;;16.67;7.03;;;;;;;;;;5094765;28;20443;-72
2023/04/29 07:27:55;;;;;;;;;;;;;;;;;;5089349;28;20048;-75
2023/04/29 07:30:22;;;;;;;18.38;7.07;;;;;;;;;;5090564;28;20262;-72
2023/04/29 07:32:48;;;;;;;17.95;7.78;;;;;;;;;;5089216;28;20062;-72
2023/04/29 07:35:14;;;;;;;19.80;7.65;;;;;;;;;;5088280;28;20847;-72
2023/04/29 07:37:42;;;;;;;17.60;7.10;;;;;;;;;;5105107;28;20036;-73
2023/04/29 07:40:08;;;;;;;13.52;6.40;;;;;;;;;;5111550;28;20071;-71
2023/04/29 07:42:34;;;;;;;15.50;6.60;;;;;;;;;;5114543;28;20055;-72
2023/04/29 07:45:00;;;;;;;13.85;6.80;;;;;;;;;;5095940;28;20063;-72
2023/04/29 07:47:26;;;;;;;15.32;6.97;;;;;;;;;;5112913;28;20048;-72
2023/04/29 07:49:53;;;;;;;;;;;;;;;;;;5114174;28;20044;-72
2023/04/29 07:52:19;;;;;;;15.85;6.13;;;;;;;;;;5105276;28;19920;-73
2023/04/29 07:54:45;;;;;;;;;;;;;;;;;;5104912;28;20122;-72
2023/04/29 07:57:11;;;;;;;14.35;6.53;;;;;;;;;;5108909;28;20458;-72
2023/04/29 07:59:37;;;;;;;21.63;7.75;;;;;;;;;;5110386;28;20044;-72
2023/04/29 08:02:03;;;;;;;11.70;5.93;;;;;;;;;;5103135;28;20085;-72
2023/04/29 08:04:29;;;;;;;;;;;;;;;;;;5100112;28;20500;-73
2023/04/29 08:06:55;;;;;;;15.70;5.95;;;;;;;;;;5106924;28;20428;-72
2023/04/29 08:09:21;;;;;;;15.85;7.30;;;;;;;;;;5106813;28;20083;-72
2023/04/29 08:11:47;;;;;;;;;;;;;;;;;;5100235;28;20047;-77
2023/04/29 08:14:14;;;;;;;14.85;6.47;;;;;;;;;;5100207;28;19998;-77
2023/04/29 08:16:40;;;;;;;;;;;;;;;;;;5103176;28;20055;-77
2023/04/29 08:19:06;;;;;;;15.18;5.75;;;;;;;;;;5083967;28;19975;-76
2023/04/29 08:21:32;;;;;;;12.75;6.15;;;;;;;;;;5081134;28;20044;-77
2023/04/29 08:23:58;;;;;;;18.65;5.70;;;;;;;;;;5101848;28;20085;-78
2023/04/29 08:26:25;;;;;;;15.40;5.53;;;;;;;;;;5099749;28;20070;-77
2023/04/29 08:28:52;;;;;;;13.27;5.20;;;;;;;;;;5099794;28;20194;-76
2023/04/29 08:31:18;;;;;;;12.20;4.78;;;;;;;;;;5097857;28;20051;-77
2023/04/29 08:33:45;;;;;;;11.30;5.30;;;;;;;;;;5082123;28;20148;-76
2023/04/29 08:36:10;;;;;;;;;;;;;;;;;;5097694;28;20074;-75
2023/04/29 08:38:37;;;;;;;12.35;5.38;;;;;;;;;;5092111;28;19963;-76
2023/04/29 08:41:03;;;;;;;11.52;5.35;;;;;;;;;;5101612;28;20381;-80
2023/04/29 08:43:29;;;;;;;16.45;5.43;;;;;;;;;;5124672;27;20043;-69
2023/04/29 08:45:55;;;;;;;;;;;;;;;;;;5134114;27;20074;-72
2023/04/29 08:48:21;;;;;;;15.02;6.03;;;;;;;;;;5122195;27;20408;-73
2023/04/29 08:50:47;;;;;;;12.63;4.80;;;;;;;;;;5112579;28;20071;-76
2023/04/29 08:53:13;;;;;;;;;;;;;;;;;;5118862;27;20114;-72
2023/04/29 08:55:43;;;;;;;10.07;4.50;;;;;;;;;;5119037;27;20068;-76
2023/04/29 08:58:10;;;;;;;10.63;5.38;;;;;;;;;;5112205;28;20047;-76
2023/04/29 09:00:38;;;;;;;13.15;5.28;;;;;;;;;;5111969;28;20511;-76
2023/04/29 09:03:10;;;;;;;13.38;5.03;;;;;;;;;;5104144;27;20086;-80
2023/04/29 09:05:37;;;;;;;13.98;4.93;;;;;;;;;;5131929;27;20050;-78
2023/04/29 09:08:04;;;;;;;11.63;5.45;;;;;;;;;;5115813;27;20544;-80
2023/04/29 09:10:31;;;;;;;10.38;5.03;;;;;;;;;;5110875;28;20125;-76
2023/04/29 09:12:57;;;;;;;12.63;5.05;;;;;;;;;;5111799;28;20472;-76
2023/04/29 09:15:23;;;;;;;12.93;4.97;;;;;;;;;;5128588;27;20039;-77
2023/04/29 09:17:49;;;;;;;11.43;5.03;;;;;;;;;;5131871;27;20395;-76
2023/04/29 09:20:22;;;;;;;10.50;5.40;;;;;;;;;;5111064;27;20047;-77
2023/04/29 09:22:48;;;;;;;11.40;5.15;;;;;;;;;;5111687;28;20039;-78
2023/04/29 09:25:15;;;;;;;11.60;5.38;;;;;;;;;;5122764;27;20054;-76
2023/04/29 09:27:41;;;;;;;8.75;4.20;;;;;;;;;;5131850;27;20090;-76
2023/04/29 09:30:08;;;;;;;12.27;4.78;;;;;;;;;;5130344;27;20051;-77
2023/04/29 09:32:34;;;;;;;9.30;4.78;;;;;;;;;;5131585;27;20057;-76
2023/04/29 09:35:00;;;;;;;;;;;;;;;;;;5098905;28;20484;-76
2023/04/29 09:37:27;;;;;;;9.48;4.75;;;;;;;;;;5110811;28;19981;-76
2023/04/29 09:39:54;;;;;;;8.80;4.15;;;;;;;;;;5111522;27;20039;-76
2023/04/29 09:42:20;;;;;;;9.82;4.88;;;;;;;;;;5131304;27;20106;-76
2023/04/29 09:44:46;;;;;;;;;;;;;;;;;;5130396;27;20051;-77
2023/04/29 09:47:12;;;;;;;8.70;4.15;;;;;;;;;;5126505;27;19924;-77
2023/04/29 09:49:44;;;;;;;11.98;4.93;;;;;;;;;;5110387;28;20051;-77
2023/04/29 09:52:11;;;;;;;8.35;4.70;;;;;;;;;;5110710;28;20043;-77
2023/04/29 09:54:38;;;;;;;9.80;4.53;;;;;;;;;;5116737;27;20047;-76
2023/04/29 09:57:05;;;;;;;11.13;5.03;;;;;;;;;;5132534;27;20043;-76
2023/04/29 09:59:34;;;;;;;11.35;4.70;;;;;;;;;;5129736;27;20454;-76
2023/04/29 10:02:03;;;;;;;9.70;4.32;;;;;;;;;;5110432;28;20074;-75
2023/04/29 10:04:32;;;;;;;10.70;4.50;;;;;;;;;;5093046;28;20115;-76
2023/04/29 10:06:59;;;;;;;8.73;4.40;;;;;;;;;;5093645;28;20058;-76
2023/04/29 10:09:25;;;;;;;8.48;4.20;;;;;;;;;;5124151;27;20080;-75
2023/04/29 10:11:52;;;;;;;7.20;3.72;;;;;;;;;;5125502;27;20153;-77
2023/04/29 10:14:19;;;;;;;8.95;3.88;;;;;;;;;;5123882;27;20220;-70
2023/04/29 10:16:49;;;;;;;8.43;3.85;;;;;;;;;;5111281;28;20138;-72
2023/04/29 10:19:27;;;;;;;9.25;4.50;;;;;;;;;;5110088;28;20044;-71
2023/04/29 10:21:54;;;;;;;9.05;4.30;;;;;;;;;;5117018;27;20134;-72
2023/04/29 10:24:22;;;;;;;8.63;3.53;;;;;;;;;;5122922;27;20458;-71
2023/04/29 10:26:50;;;;;;;8.35;3.88;;;;;;;;;;5123023;27;20079;-71
2023/04/29 10:29:17;;;;;;;7.22;3.70;;;;;;;;;;5127764;27;20039;-75
2023/04/29 10:31:43;;;;;;;8.50;3.70;;;;;;;;;;5129463;27;20082;-81
2023/04/29 10:34:11;;;;;;;9.50;4.15;;;;;;;;;;5129980;27;20054;-72
2023/04/29 10:36:37;;;;;;;9.60;3.83;;;;;;;;;;5131301;27;20492;-78
2023/04/29 10:39:04;;;;;;;;;;;;;;;;;;5123386;27;20047;-74
2023/04/29 10:41:43;;;;;;;8.48;3.90;;;;;;;;;;5108790;28;20300;-74
2023/04/29 10:44:10;;;;;;;8.35;4.40;;;;;;;;;;5111148;28;20055;-75
2023/04/29 10:46:36;;;;;;;10.77;4.78;;;;;;;;;;5109796;28;20047;-74
2023/04/29 10:49:03;;;;;;;9.35;4.10;;;;;;;;;;5099727;28;20391;-75
2023/04/29 10:51:31;;;;;;;8.43;4.25;;;;;;;;;;5103353;28;20040;-76
2023/04/29 10:54:08;;;;;;;7.90;3.92;;;;;;;;;;5110017;28;20093;-75
2023/04/29 10:56:36;;;;;;;8.25;3.80;;;;;;;;;;5089818;28;20492;-76
2023/04/29 10:59:02;;;;;;;9.95;4.18;;;;;;;;;;5098811;28;20047;-74
2023/04/29 11:01:41;;;;;;;11.60;4.20;;;;;;;;;;5109350;28;20048;-72
2023/04/29 11:04:08;;;;;;;8.60;4.25;;;;;;;;;;5109957;28;20048;-72
2023/04/29 11:06:34;;;;;;;9.15;4.00;;;;;;;;;;5110651;28;20100;-71
2023/04/29 11:09:01;;;;;;;;;;;;;;;;;;5109818;28;20067;-72
2023/04/29 11:11:40;;;;;;;10.40;4.15;;;;;;;;;;5110327;28;19928;-72
2023/04/29 11:14:08;;;;;;;9.32;3.75;;;;;;;;;;5115037;27;20052;-72
2023/04/29 11:16:36;;;;;;;7.78;3.92;;;;;;;;;;5113443;28;20044;-73
2023/04/29 11:19:05;;;;;;;9.93;4.50;;;;;;;;;;5113766;28;20085;-74
2023/04/29 11:21:33;;;;;;;9.57;3.80;;;;;;;;;;5114385;28;20504;-79
2023/04/29 11:24:00;;;;;;;5.80;3.40;;;;;;;;;;5114101;28;20053;-80
2023/04/29 11:26:26;;;;;;;10.43;3.30;;;20.30;99.90;;;;;;5108242;28;20043;-80
2023/04/29 11:28:53;;;;;;;7.80;3.00;;;21.00;99.90;;;;;;5108920;28;20072;-77
2023/04/29 11:31:18;;;;;;;5.40;2.90;;;21.40;99.90;;;;;;5108557;28;20047;-76
2023/04/29 11:33:46;;;;;;;6.32;3.10;;;21.60;99.90;;;;;;5093710;27;20155;-72
2023/04/29 11:36:11;;;;;;;6.55;2.70;;;21.60;99.90;;;;;;5094330;28;20048;-72
2023/04/29 11:38:40;;;;;;;6.00;3.13;;;21.50;99.90;;;;;;5092776;28;20139;-71
2023/04/29 11:41:06;;;;;;;6.68;3.10;;;21.40;99.90;;;;;;5112175;27;20508;-79
2023/04/29 11:43:31;;;;;;;6.43;2.80;;;20.90;99.90;;;;;;5116093;27;20047;-80
2023/04/29 11:45:57;;;;;;;7.55;2.65;;;20.50;99.90;;;;;;5137081;27;20122;-78
2023/04/29 11:48:26;;;;;;;6.47;2.78;;;20.30;99.90;;;;;;5116152;27;20039;-82
2023/04/29 11:50:56;;;;;;;6.18;2.90;;;20.50;99.90;;;;;;5082282;27;20062;-80
2023/04/29 11:53:24;;;;;;;7.72;3.00;;;20.90;97.50;;;;;;5134538;27;20047;-82
2023/04/29 11:55:52;;;;;;;7.40;2.78;;;21.30;97.70;;;;;;5117404;27;20397;-71
2023/04/29 11:58:20;;;;;;;8.80;3.50;;;21.70;93.40;;;;;;5143301;27;20042;-73
2023/04/29 12:00:49;;;;;;;6.53;2.75;;;22.10;91.40;;;;;;5154638;27;20514;-72
2023/04/29 12:03:16;;;;;;;5.43;2.60;;;22.30;83.30;;;;;;5155403;27;20107;-72
2023/04/29 12:05:52;;;;;;;7.25;2.60;;;22.30;79.90;;;;;;5144821;27;20082;-72
2023/04/29 12:08:21;;;;;;;6.68;3.15;;;22.50;76.70;;;;;;5139872;27;20038;-71
2023/04/29 12:10:47;;;;;;;7.47;3.22;;;22.70;77.70;;;;;;5135937;27;20086;-73
2023/04/29 12:13:14;;;;;;;6.15;2.63;;;23.10;82.20;;;;;;5146062;27;20039;-75
2023/04/29 12:15:40;;;;;;;8.05;2.88;;;23.20;78.80;;;;;;5115752;27;20043;-75
2023/04/29 12:18:07;;;;;;;6.70;2.60;;;23.30;77.50;;;;;;5141999;27;20049;-76
2023/04/29 12:20:33;;;;;;;8.48;2.78;;;23.30;75.80;;;;;;5125774;27;20441;-77
2023/04/29 12:23:17;;;;;;;7.10;2.85;;;23.50;75.30;;;;;;5133021;27;20439;-76
2023/04/29 12:25:58;;;;;;;4.97;2.40;;;23.60;68.80;;;;;;5122058;27;20366;-76
2023/04/29 12:28:25;;;;;;;7.18;2.10;;;23.80;71.10;;;;;;5154497;27;20047;-78
2023/04/29 12:30:55;;;;;;;4.25;2.28;;;23.90;72.10;;;;;;5136707;27;20051;-75
2023/04/29 12:33:23;;;;;;;5.80;2.42;;;24.00;70.60;;;;;;5154593;27;20133;-76
2023/04/29 12:35:56;;;;;;;3.88;1.98;;;24.00;67.80;;;;;;5135540;27;20129;-76
2023/04/29 12:38:29;;;;;;;4.88;2.20;;;24.00;66.00;;;;;;5135537;27;22419;-75
2023/04/29 12:41:02;;;;;;;5.93;2.30;;;24.10;65.90;;;;;;5120535;27;20054;-76
2023/04/29 12:43:29;;;;;;;6.45;2.15;;;24.40;66.70;;;;;;5154028;27;20061;-75
2023/04/29 12:46:01;;;;;;;6.25;2.20;;;24.80;64.40;;;;;;5154842;27;20047;-75
2023/04/29 12:48:31;;;;;;;5.20;2.00;;;25.00;60.80;;;;;;5134961;27;20054;-78
2023/04/29 12:50:58;;;;;;;4.18;2.22;;;25.30;61.80;;;;;;5136246;27;20483;-75
2023/04/29 12:53:26;;;;;;;3.42;2.10;;;25.60;61.60;;;;;;5154577;27;20047;-75
2023/04/29 12:55:52;;;;;;;7.82;2.38;;;25.40;60.40;;;;;;5134883;27;20475;-76
2023/04/29 12:58:18;;;;;;;5.35;1.90;;;25.10;59.80;;;;;;5136233;27;20436;-75
2023/04/29 13:00:44;;;;;;;4.97;2.22;;;25.20;59.90;;;;;;5153740;27;20082;-76
2023/04/29 13:03:10;;;;;;;4.90;2.30;;;25.50;59.20;;;;;;5152070;27;20073;-76
2023/04/29 13:05:36;;;;;;;4.47;2.13;;;25.80;58.30;;;;;;5153127;27;20038;-76
2023/04/29 13:08:04;;;;;;;3.65;2.03;;;26.20;58.20;;;;;;5119379;27;20039;-76
2023/04/29 13:10:30;;;;;;;9.05;3.00;;;26.50;57.30;;;;;;5131525;27;20046;-76
2023/04/29 13:12:56;;;;;;;5.47;2.42;;;26.60;56.50;;;;;;5132877;27;20057;-74
2023/04/29 13:15:22;;;;;;;4.05;2.17;;;26.70;56.40;;;;;;5142019;27;20034;-78
2023/04/29 13:17:47;;;;;;;4.63;2.35;;;27.20;57.10;;;;;;5134614;27;20536;-78
2023/04/29 13:20:14;;;;;;;6.63;2.20;;;27.90;56.40;;;;;;5114251;27;20051;-80
2023/04/29 13:22:40;;;;;;;4.40;1.95;;;28.40;55.80;;;;;;5097540;27;20051;-84
2023/04/29 13:25:07;;;;;;;6.28;2.00;;;28.70;55.70;;;;;;5124809;27;20046;-73
2023/04/29 13:27:33;;;;;;;6.00;2.22;;;28.90;55.80;;;;;;5153311;27;20057;-73
2023/04/29 13:29:58;;;;;;;3.85;1.75;;;28.90;56.50;;;;;;5153670;27;20071;-66
2023/04/29 13:32:24;;;;;;;3.75;1.77;;;28.80;57.20;;;;;;5150896;27;20483;-68
2023/04/29 13:34:50;;;;;;;2.42;1.50;;;28.60;56.70;;;;;;5131739;27;20787;-66
2023/04/29 13:37:16;;;;;;;3.75;1.70;;;28.40;57.10;;;;;;5132743;27;20052;-66
2023/04/29 13:39:42;;;;;;;4.82;1.60;;;28.50;57.80;;;;;;5140264;27;20043;-66
2023/04/29 13:42:08;;;;;;;3.80;1.67;;;28.70;57.10;;;;;;5139318;27;20063;-66
2023/04/29 13:44:35;;;;;;;3.35;1.40;;;28.80;56.00;;;;;;5137275;27;20053;-66
2023/04/29 13:47:01;;;;;;;4.53;1.55;;;28.80;55.10;;;;;;5137257;27;20043;-66
2023/04/29 13:49:26;;;;;;;3.25;1.40;;;28.80;54.30;;;;;;5137440;27;20503;-66
2023/04/29 13:51:52;;;;;;;4.78;1.83;;;28.70;53.90;;;;;;5136503;27;20747;-67
2023/04/29 13:54:19;;;;;;;4.32;1.50;;;28.70;53.10;;;;;;5151270;27;20091;-68
2023/04/29 13:56:46;;;;;;;2.85;1.50;;;28.70;52.80;;;;;;5152232;27;20067;-67
2023/04/29 13:59:12;;;;;;;2.72;1.60;;;28.90;52.80;;;;;;5152703;27;20035;-68
2023/04/29 14:01:38;;;;;;;4.45;1.45;;;29.10;52.00;;;;;;5138158;27;20470;-66
2023/04/29 14:04:04;;;;;;;2.55;1.50;;;29.10;50.80;;;;;;5150197;27;20122;-67
2023/04/29 14:06:31;;;;;;;3.67;1.50;;;29.00;50.90;;;;;;5145098;27;20043;-66
2023/04/29 14:08:57;;;;;;;3.65;1.35;;;29.10;51.50;;;;;;5152057;27;20050;-66
2023/04/29 14:11:23;;;;;;;2.38;1.50;;;29.30;51.00;;;;;;5137724;27;20166;-67
2023/04/29 14:13:49;;;;;;;2.75;1.50;;;29.50;50.00;;;;;;5151821;27;20424;-66
2023/04/29 14:16:15;;;;;;;2.65;1.42;;;29.30;48.60;;;;;;5134224;27;20471;-66
2023/04/29 14:18:41;;;;;;;2.03;1.27;;;29.10;48.40;;;;;;5150695;27;20458;-66